Flight Track Log - Related Links

Times and Time Zones

All times are in EDT time to prevent confusion due to time zone crossing. See the ELJ642 flight status page for this flight to view local times or setup timezone preferences in your user account.

Time Position Orientation Groundspeed Altitude Reporting Facility
EDT Latitude Longitude Course Direction KTS MPH feet Rate Location/Type
Sun 01:12:36 PM 41.7983 -87.6667 98° East 237 273 3,500  Level Chicago Center
Sun 01:13:38 PM 41.7958 -87.5681 92° East 252 290 5,000 1,597 Climbing Chicago Center
Sun 01:14:40 PM 41.8053 -87.4653 83° East 271 312 6,800 2,323 Climbing Chicago Center
Sun 01:15:42 PM 41.7958 -87.3572 97° East 291 335 9,800 3,145 Climbing Chicago Center
Sun 01:16:44 PM 41.7800 -87.2244 99° East 300 345 13,300 3,145 Climbing Chicago Center
Sun 01:17:00 PM 41.7553 -87.1031 98° East  Level FlightAware Approximate
Sun 01:17:46 PM 41.7664 -87.1119 99° East 305 351 16,300  Level Chicago Center
Sun 01:18:49 PM 41.7628 -86.9992 92° East 307 353 18,100 1,824 Climbing Chicago Center
Sun 01:19:51 PM 41.7636 -86.8789 89° East 322 371 20,100 1,935 Climbing Chicago Center
Sun 01:20:53 PM 41.7639 -86.7525 90° East 338 389 22,100 2,081 Climbing Chicago Center
Sun 01:21:55 PM 41.7658 -86.6078 89° East 344 396 24,400 2,081 Climbing Chicago Center
Sun 01:22:57 PM 41.7672 -86.4778 89° East 350 403 26,400 1,839 Climbing Chicago Center
Sun 01:23:59 PM 41.7925 -86.3617 74° East 327 376 28,200 1,403 Climbing Chicago Center
Sun 01:25:01 PM 41.8208 -86.2422 72° East 335 386 29,300 1,016 Climbing Chicago Center
Sun 01:26:03 PM 41.8506 -86.1144 73° East 356 410 30,300 1,065 Climbing Chicago Center
Sun 01:27:05 PM 41.8886 -85.9522 72° East 378 435 31,500 919 Climbing Chicago Center
Sun 01:28:07 PM 41.9217 -85.8086 73° East 398 458 32,200 677 Climbing Chicago Center
Sun 01:29:09 PM 41.9567 -85.6572 73° East 416 479 32,900 672 Climbing Chicago Center
Sun 01:30:12 PM 41.9931 -85.4997 73° East 431 496 33,600 672 Climbing Chicago Center
Sun 01:31:14 PM 42.0325 -85.3272 73° East 442 509 34,300 677 Climbing Chicago Center
Sun 01:32:16 PM 42.0697 -85.1650 73° East 454 522 35,000 339 Climbing Chicago Center
Sun 01:33:18 PM 42.1056 -85.0006 74° East 459 528 35,000  Level Chicago Center
Sun 01:34:20 PM 42.1411 -84.8372 74° East 458 527 35,000  Level Chicago Center
Sun 01:35:22 PM 42.1775 -84.6764 73° East 454 522 35,000  Level Chicago Center
Sun 01:36:24 PM 42.2189 -84.4883 73° East 441 507 35,000  Level Chicago Center
Sun 01:37:27 PM 42.2533 -84.3228 74° East 430 495 35,000  Level Cleveland Center
Sun 01:38:27 PM 42.2856 -84.1647 75° East 435 501 35,000  Level Cleveland Center
Sun 01:39:27 PM 42.3194 -84.0094 74° East 430 495 35,000  Level Cleveland Center
Sun 01:40:27 PM 42.3533 -83.8511 74° East 430 495 35,000  Level Cleveland Center
Sun 01:41:27 PM 42.3869 -83.6953 74° East 430 495 35,000  Level Cleveland Center
Sun 01:42:27 PM 42.4200 -83.5394 74° East 430 495 35,000 -100 Level Cleveland Center
Sun 01:43:27 PM 42.4589 -83.4061 68° East 425 489 34,800 -650 Descending Cleveland Center
Sun 01:44:27 PM 42.4911 -83.2753 71° East 401 461 33,700 -1,100 Descending Cleveland Center
Sun 01:45:27 PM 42.5275 -83.1469 69° East 378 435 32,600 -1,000 Descending Cleveland Center
Sun 01:46:27 PM 42.5592 -83.0300 70° East 355 409 31,700 -950 Descending Cleveland Center
Sun 01:47:27 PM 42.5908 -82.9069 71° East 344 396 30,700 -1,050 Descending Cleveland Center
Sun 01:48:27 PM 42.6247 -82.7814 70° East 344 396 29,600 -1,050 Descending Cleveland Center
Sun 01:49:27 PM 42.6561 -82.6553 71° East 344 396 28,600 -1,050 Descending Cleveland Center
Sun 01:50:27 PM 42.6897 -82.5294 70° East 344 396 27,500 -800 Descending Cleveland Center
Sun 01:51:27 PM 42.7231 -82.4061 70° East 344 396 27,000 -250 Descending Cleveland Center
Sun 01:52:27 PM 42.7542 -82.2797 71° East 344 396 27,000  Level Cleveland Center
Sun 01:53:27 PM 42.7850 -82.1533 72° East 344 396 27,000  Level Cleveland Center
Sun 01:54:27 PM 42.8181 -82.0239 71° East 344 396 27,000  Level Cleveland Center
Sun 01:55:27 PM 42.8486 -81.8972 72° East 344 396 27,000  Level Cleveland Center
Sun 01:57:02 PM 42.9000 -81.6833 72° East 350 403 27,000 -39 Level Toronto Center
Sun 01:58:02 PM 42.9500 -81.5667 60° Northeast 340 391 26,900 -800 Descending Toronto Center
Sun 01:59:02 PM 42.9833 -81.4500 69° East 330 380 25,400 -1,550 Descending Toronto Center
Sun 02:00:02 PM 43.0333 -81.3500 56° Northeast 320 368 23,800 -1,550 Descending Toronto Center
Sun 02:01:02 PM 43.0833 -81.2500 56° Northeast 320 368 22,300 -1,500 Descending Toronto Center
Sun 02:02:02 PM 43.1167 -81.1333 69° East 320 368 20,800 -1,600 Descending Toronto Center
Sun 02:03:02 PM 43.1667 -81.0500 51° Northeast 300 345 19,100 -1,500 Descending Toronto Center
Sun 02:04:02 PM 43.2333 -81.0333 10° North 270 311 17,800 -1,450 Descending Toronto Center
Sun 02:05:02 PM 43.3167 -81.0000 16° North 260 299 16,200 -1,600 Descending Toronto Center
Sun 02:06:02 PM 43.3833 -80.9833 10° North 260 299 14,600 -1,600 Descending Toronto Center
Sun 02:07:02 PM 43.4500 -80.9500 20° North 250 288 13,000 -1,500 Descending Toronto Center
Sun 02:08:02 PM 43.4667 -80.8500 77° East 270 311 11,600 -1,200 Descending Toronto Center
Sun 02:09:02 PM 43.4667 -80.7333 90° East 270 311 10,600 -950 Descending Toronto Center
Sun 02:10:02 PM 43.4667 -80.6500 90° East 270 311 9,700 -900 Descending Toronto Center
Sun 02:11:02 PM 43.4667 -80.5333 90° East 270 311 8,800 -950 Descending Toronto Center
Sun 02:12:02 PM 43.4500 -80.4333 103° East 260 299 7,800 -900 Descending Toronto Center
Sun 02:13:02 PM 43.4500 -80.3500 90° East 260 299 7,000 -400 Descending Toronto Center
Sun 02:14:02 PM 43.4667 -80.2333 79° East 260 299 7,000  Level Toronto Center
Sun 02:15:02 PM 43.4833 -80.1333 77° East 250 288 7,000 -250 Level Toronto Center
Sun 02:16:02 PM 43.4500 -80.0667 125° Southeast 240 276 6,500 -500 Descending Toronto Center
Sun 02:17:02 PM 43.4333 -80.0000 109° East 230 265 6,000 -550 Descending Toronto Center
Sun 02:18:02 PM 43.4667 -79.9333 55° Northeast 200 230 5,400 -500 Descending Toronto Center
Sun 02:19:02 PM 43.5000 -79.8833 47° Northeast 180 207 5,000 -500 Descending Toronto Center
Sun 02:20:02 PM 43.5333 -79.8333 47° Northeast 180 207 4,400 -850 Descending Toronto Center
Sun 02:21:02 PM 43.5667 -79.8000 36° Northeast 170 196 3,300 -950 Descending Toronto Center
Sun 02:22:02 PM 43.6000 -79.7500 47° Northeast 170 196 2,500 -800 Descending Toronto Center
Sun 02:23:02 PM 43.6333 -79.7000 47° Northeast 160 184 1,700 -750 Descending Toronto Center
Sun 02:24:02 PM 43.6500 -79.6500 65° Northeast 130 150 1,000 -600 Descending Toronto Center
Sun 02:25:02 PM 43.6667 -79.6333 36° Northeast 120 138 500 -200 Descending Toronto Center
Sun 02:26:02 PM 43.6833 -79.6167 36° Northeast 40 46 600 100 Climbing Toronto Center

Login

Don't have an account? Register now (free) for customized features, flight alerts, and more!